createdAt,value
2023-01-11T00:03:15.902Z,98.43
2023-01-11T00:07:15.618Z,99.10
2023-01-11T00:22:15.618Z,98.60
2023-01-11T00:44:11.801Z,98.68
2023-01-11T00:54:52.916Z,98.79
2023-01-11T00:58:34.976Z,99.33
2023-01-11T01:02:16.844Z,99.67
2023-01-11T01:05:56.272Z,99.14
2023-01-11T01:09:26.598Z,99.43
2023-01-11T01:13:17.707Z,99.64
2023-01-11T01:16:43.249Z,99.90
2023-01-11T01:20:25.165Z,99.30
2023-01-11T01:24:00.175Z,98.93
2023-01-11T01:27:36.155Z,99.24
2023-01-11T01:31:12.816Z,99.53
2023-01-11T01:34:56.751Z,99.30
2023-01-11T01:38:35.747Z,99.58
2023-01-11T01:42:21.785Z,100.00
2023-01-11T01:45:53.122Z,100.00
2023-01-11T01:50:03.026Z,100.00
2023-01-11T01:53:32.074Z,99.91
2023-01-11T01:57:09.770Z,99.46
2023-01-11T02:00:45.472Z,99.45
2023-01-11T02:04:56.748Z,99.78
2023-01-11T02:08:37.985Z,99.59
2023-01-11T02:12:21.751Z,99.85
2023-01-11T02:16:12.581Z,100.00
2023-01-11T02:19:52.498Z,100.00
2023-01-11T02:23:36.303Z,100.00
2023-01-11T02:27:33.525Z,100.00
2023-01-11T02:31:39.553Z,100.00
2023-01-11T02:35:05.148Z,100.00
2023-01-11T02:39:07.767Z,100.00
2023-01-11T02:43:17.185Z,100.00
2023-01-11T02:46:43.546Z,100.00
2023-01-11T02:50:12.455Z,100.00
2023-01-11T02:53:53.221Z,100.00
2023-01-11T02:57:33.090Z,100.00
2023-01-11T03:00:50.922Z,100.00
2023-01-11T03:04:36.506Z,100.00
2023-01-11T03:08:41.466Z,100.00
2023-01-11T03:12:49.101Z,100.00
2023-01-11T03:16:27.907Z,100.00
2023-01-11T03:20:28.271Z,100.00
2023-01-11T03:24:08.450Z,100.00
2023-01-11T03:28:16.900Z,100.00
2023-01-11T03:31:44.839Z,100.00
2023-01-11T03:35:27.529Z,100.00
2023-01-11T03:38:58.045Z,100.00
2023-01-11T03:42:15.380Z,100.00
2023-01-11T03:46:09.648Z,100.00
2023-01-11T03:49:39.959Z,100.00
2023-01-11T03:52:56.335Z,100.00
2023-01-11T03:57:06.642Z,100.00
2023-01-11T04:00:32.409Z,100.00
2023-01-11T04:03:58.509Z,100.00
2023-01-11T04:07:50.059Z,100.00
2023-01-11T04:11:22.038Z,100.00
2023-01-11T04:14:34.242Z,100.00
2023-01-11T04:18:04.908Z,100.00
2023-01-11T04:22:15.977Z,100.00
2023-01-11T04:25:35.054Z,100.00
2023-01-11T04:29:11.841Z,100.00
2023-01-11T04:32:31.062Z,100.00
2023-01-11T04:36:10.161Z,100.00
2023-01-11T04:39:36.259Z,100.00
2023-01-11T04:46:59.798Z,100.00
2023-01-11T04:50:32.958Z,100.00
2023-01-11T04:54:10.246Z,100.00
2023-01-11T04:57:45.787Z,100.00
2023-01-11T05:00:57.165Z,100.00
2023-01-11T05:04:37.556Z,100.00
2023-01-11T05:08:00.395Z,100.00
2023-01-11T05:11:38.080Z,100.00
2023-01-11T05:15:13.783Z,100.00
2023-01-11T05:22:19.152Z,100.00
2023-01-11T05:25:50.012Z,100.00
2023-01-11T05:29:13.456Z,100.00
2023-01-11T05:32:48.949Z,100.00
2023-01-11T05:36:22.368Z,100.00
2023-01-11T05:39:57.417Z,100.00
2023-01-11T05:43:24.760Z,100.00
2023-01-11T05:46:56.811Z,100.00
2023-01-11T05:50:21.392Z,100.00
2023-01-11T05:57:35.608Z,100.00
2023-01-11T06:01:02.067Z,100.00
2023-01-11T06:04:37.150Z,100.00
2023-01-11T06:08:12.013Z,100.00
2023-01-11T06:11:46.435Z,100.00
2023-01-11T06:15:21.417Z,100.00
2023-01-11T06:18:54.419Z,100.00
2023-01-11T06:22:30.069Z,100.00
2023-01-11T06:26:06.666Z,100.00
2023-01-11T06:29:33.554Z,100.00
2023-01-11T06:33:07.688Z,100.00
2023-01-11T06:36:27.211Z,100.00
2023-01-11T06:40:00.289Z,100.00
2023-01-11T06:47:13.663Z,100.00
2023-01-11T06:50:49.060Z,100.00
2023-01-11T06:54:25.890Z,100.00
2023-01-11T06:58:00.759Z,100.00
2023-01-11T07:01:35.163Z,100.00
2023-01-11T07:05:12.161Z,100.00
2023-01-11T07:08:48.166Z,100.00
2023-01-11T07:12:22.998Z,100.00
2023-01-11T07:15:58.834Z,100.00
2023-01-11T07:19:33.172Z,100.00
2023-01-11T07:23:07.968Z,100.00
2023-01-11T07:26:36.065Z,100.00
2023-01-11T07:30:10.384Z,100.00
2023-01-11T07:33:50.002Z,100.00
2023-01-11T07:37:37.444Z,100.00
2023-01-11T07:41:50.302Z,100.00
2023-01-11T07:45:22.066Z,100.00
2023-01-11T07:48:55.113Z,100.00
2023-01-11T07:52:52.871Z,100.00
2023-01-11T07:56:36.894Z,100.00
2023-01-11T08:00:08.737Z,100.00
2023-01-11T08:03:40.716Z,100.00
2023-01-11T08:07:14.669Z,100.00
2023-01-11T08:11:19.053Z,100.00
2023-01-11T08:14:54.223Z,100.00
2023-01-11T08:18:28.831Z,100.00
2023-01-11T08:25:49.707Z,100.00
2023-01-11T08:29:55.344Z,100.00
2023-01-11T08:33:40.189Z,100.00
2023-01-11T08:37:07.496Z,100.00
2023-01-11T08:40:41.994Z,100.00
2023-01-11T08:48:07.220Z,100.00
2023-01-11T08:51:49.348Z,100.00
2023-01-11T08:55:44.616Z,100.00
2023-01-11T08:59:26.960Z,100.00
2023-01-11T09:02:45.799Z,100.00
2023-01-11T09:06:37.267Z,100.00
2023-01-11T09:10:09.654Z,100.00
2023-01-11T09:13:58.539Z,100.00
2023-01-11T09:17:21.043Z,100.00
2023-01-11T09:20:58.774Z,100.00
2023-01-11T09:24:46.334Z,100.00
2023-01-11T09:28:24.230Z,100.00
2023-01-11T09:31:51.614Z,100.00
2023-01-11T09:35:28.507Z,100.00
2023-01-11T09:39:16.194Z,99.98
2023-01-11T09:42:57.535Z,99.16
2023-01-11T09:46:22.374Z,96.68
2023-01-11T09:50:01.054Z,95.64
2023-01-11T09:53:50.349Z,95.31
2023-01-11T09:58:28.823Z,94.28
2023-01-11T10:02:05.867Z,93.73
2023-01-11T10:06:15.143Z,93.53
2023-01-11T10:18:29.448Z,87.77
2023-01-11T10:20:59.201Z,86.04
2023-01-11T10:28:17.897Z,81.66
2023-01-11T10:32:34.718Z,80.44
2023-01-11T10:36:36.989Z,79.49
2023-01-11T10:40:33.675Z,80.72
2023-01-11T10:44:08.816Z,80.12
2023-01-11T10:48:14.782Z,77.04
2023-01-11T10:51:53.274Z,77.99
2023-01-11T10:55:23.395Z,76.22
2023-01-11T10:59:16.211Z,76.57
2023-01-11T11:02:57.147Z,75.02
2023-01-11T11:06:59.435Z,72.46
2023-01-11T11:11:01.897Z,73.35
2023-01-11T11:14:58.663Z,72.71
2023-01-11T11:18:34.807Z,73.93
2023-01-11T11:21:56.511Z,72.95
2023-01-11T11:25:23.172Z,72.46
2023-01-11T11:29:08.735Z,70.13
2023-01-11T11:32:52.370Z,70.49
2023-01-11T11:36:17.822Z,69.77
2023-01-11T11:39:55.006Z,66.12
2023-01-11T11:43:32.659Z,64.09
2023-01-11T11:47:04.746Z,63.55
2023-01-11T11:50:45.447Z,62.60
2023-01-11T11:53:59.013Z,63.12
2023-01-11T11:57:40.625Z,61.89
2023-01-11T12:01:23.968Z,62.88
2023-01-11T12:05:05.731Z,65.22
2023-01-11T12:08:43.098Z,66.47
2023-01-11T12:12:25.909Z,66.98
2023-01-11T12:15:40.673Z,66.94
2023-01-11T12:19:43.286Z,66.43
2023-01-11T12:23:30.089Z,66.85
2023-01-11T12:27:12.618Z,68.56
2023-01-11T12:31:12.929Z,68.99
2023-01-11T12:35:29.271Z,68.70
2023-01-11T12:39:19.593Z,68.79
2023-01-11T12:43:17.693Z,69.41
2023-01-11T12:47:05.942Z,68.21
2023-01-11T12:50:34.799Z,69.59
2023-01-11T12:54:15.023Z,68.47
2023-01-11T12:58:01.200Z,68.30
2023-01-11T13:01:42.961Z,69.17
2023-01-11T13:05:53.748Z,68.12
2023-01-11T13:09:48.571Z,66.67
2023-01-11T13:13:51.056Z,67.74
2023-01-11T13:17:21.411Z,68.04
2023-01-11T13:21:14.541Z,66.77
2023-01-11T13:24:53.726Z,65.67
2023-01-11T13:28:44.203Z,65.53
2023-01-11T13:32:28.525Z,65.48
2023-01-11T13:36:22.700Z,64.10
2023-01-11T13:40:16.896Z,62.60
2023-01-11T13:44:06.475Z,62.51
2023-01-11T13:47:42.449Z,63.09
2023-01-11T13:51:39.117Z,65.46
2023-01-11T13:55:26.598Z,63.70
2023-01-11T13:59:09.248Z,66.67
2023-01-11T14:03:20.183Z,69.96
2023-01-11T14:07:19.342Z,71.24
2023-01-11T14:11:39.184Z,71.08
2023-01-11T14:15:44.021Z,72.67
2023-01-11T14:19:44.705Z,73.58
2023-01-11T14:23:33.441Z,74.86
2023-01-11T14:27:47.205Z,75.07
2023-01-11T14:31:56.417Z,75.77
2023-01-11T14:36:06.216Z,76.84
2023-01-11T14:44:54.086Z,78.24
2023-01-11T15:01:00.415Z,82.93
2023-01-11T15:05:00.021Z,83.92
2023-01-11T15:09:08.529Z,85.15
2023-01-11T15:12:41.713Z,86.33
2023-01-11T15:16:36.881Z,87.12
2023-01-11T15:20:14.009Z,88.40
2023-01-11T15:23:54.452Z,89.11
2023-01-11T15:35:57.821Z,90.43
2023-01-11T15:48:51.183Z,89.79
2023-01-11T16:01:18.571Z,92.69
2023-01-11T16:05:13.074Z,93.87
2023-01-11T16:08:56.839Z,96.34
2023-01-11T16:13:01.049Z,96.69
2023-01-11T16:16:56.108Z,94.73
2023-01-11T16:20:30.040Z,95.25
2023-01-11T16:23:47.897Z,93.37
2023-01-11T16:27:35.136Z,93.54
2023-01-11T16:31:05.531Z,94.26
2023-01-11T16:34:26.183Z,95.37
2023-01-11T16:37:50.765Z,97.05
2023-01-11T16:41:23.984Z,97.47
2023-01-11T16:45:07.515Z,98.12
2023-01-11T16:48:41.861Z,99.09
2023-01-11T16:52:27.558Z,100.00
2023-01-11T16:56:09.227Z,100.00
2023-01-11T17:03:47.894Z,100.00
2023-01-11T17:07:24.959Z,100.00
2023-01-11T17:10:58.933Z,100.00
2023-01-11T17:14:36.390Z,100.00
2023-01-11T17:18:04.834Z,100.00
2023-01-11T17:21:39.217Z,100.00
2023-01-11T17:29:00.591Z,100.00
2023-01-11T17:32:38.539Z,100.00
2023-01-11T17:36:07.665Z,100.00
2023-01-11T17:39:50.976Z,100.00
2023-01-11T17:43:48.787Z,100.00
2023-01-11T17:47:23.725Z,100.00
2023-01-11T17:51:09.981Z,100.00
2023-01-11T17:54:59.201Z,100.00
2023-01-11T17:58:39.241Z,100.00
2023-01-11T18:02:16.309Z,100.00
2023-01-11T18:05:56.084Z,100.00
2023-01-11T18:09:36.180Z,100.00
2023-01-11T18:13:23.666Z,100.00
2023-01-11T18:17:42.377Z,100.00
2023-01-11T18:21:26.713Z,100.00
2023-01-11T18:25:14.987Z,100.00
2023-01-11T18:29:04.072Z,100.00
2023-01-11T18:32:45.047Z,100.00
2023-01-11T18:36:23.008Z,100.00
2023-01-11T18:39:58.471Z,100.00
2023-01-11T18:43:36.307Z,100.00
2023-01-11T18:47:11.322Z,100.00
2023-01-11T18:50:52.481Z,100.00
2023-01-11T18:54:33.472Z,100.00
2023-01-11T18:58:06.123Z,100.00
2023-01-11T19:01:52.666Z,100.00
2023-01-11T19:05:19.006Z,100.00
2023-01-11T19:08:50.271Z,100.00
2023-01-11T19:12:20.919Z,100.00
2023-01-11T19:15:56.972Z,100.00
2023-01-11T19:19:33.788Z,100.00
2023-01-11T19:23:02.937Z,100.00
2023-01-11T19:27:08.601Z,100.00
2023-01-11T19:30:41.014Z,100.00
2023-01-11T19:34:13.235Z,100.00
2023-01-11T19:37:42.783Z,100.00
2023-01-11T19:41:51.297Z,100.00
2023-01-11T19:45:15.139Z,100.00
2023-01-11T19:48:47.311Z,100.00
2023-01-11T19:52:29.287Z,100.00
2023-01-11T19:56:08.476Z,100.00
2023-01-11T20:00:14.517Z,100.00
2023-01-11T20:03:40.714Z,100.00
2023-01-11T20:07:06.261Z,100.00
2023-01-11T20:10:51.178Z,100.00
2023-01-11T20:14:19.637Z,100.00
2023-01-11T20:18:23.331Z,100.00
2023-01-11T20:26:42.418Z,100.00
2023-01-11T20:30:15.411Z,100.00
2023-01-11T20:33:56.418Z,100.00
2023-01-11T20:37:38.668Z,100.00
2023-01-11T20:41:39.345Z,100.00
2023-01-11T20:45:12.582Z,100.00
2023-01-11T20:48:31.207Z,100.00
2023-01-11T20:51:51.990Z,100.00
2023-01-11T20:55:21.325Z,100.00
2023-01-11T20:58:55.530Z,100.00
2023-01-11T21:02:19.162Z,100.00
2023-01-11T21:05:56.440Z,100.00
2023-01-11T21:09:29.214Z,100.00
2023-01-11T21:16:32.843Z,100.00
2023-01-11T21:20:05.060Z,100.00
2023-01-11T21:23:31.794Z,100.00
2023-01-11T21:27:13.884Z,100.00
2023-01-11T21:30:48.328Z,100.00
2023-01-11T21:34:17.947Z,100.00
2023-01-11T21:37:44.378Z,100.00
2023-01-11T21:41:18.833Z,100.00
2023-01-11T21:44:52.669Z,100.00
2023-01-11T21:48:27.305Z,100.00
2023-01-11T21:52:01.793Z,100.00
2023-01-11T21:55:34.860Z,100.00
2023-01-11T21:59:06.258Z,100.00
2023-01-11T22:02:25.549Z,100.00
2023-01-11T22:06:01.707Z,100.00
2023-01-11T22:09:18.290Z,100.00
2023-01-11T22:12:49.632Z,100.00
2023-01-11T22:16:46.199Z,100.00
2023-01-11T22:20:03.321Z,100.00
2023-01-11T22:23:30.956Z,100.00
2023-01-11T22:26:59.146Z,100.00
2023-01-11T22:30:25.721Z,100.00
2023-01-11T22:33:43.271Z,100.00
2023-01-11T22:37:11.105Z,100.00
2023-01-11T22:40:45.223Z,100.00
2023-01-11T22:44:19.779Z,100.00
2023-01-11T22:47:59.458Z,100.00
2023-01-11T22:51:51.264Z,100.00
2023-01-11T22:55:25.180Z,100.00
2023-01-11T22:58:59.421Z,100.00
2023-01-11T23:02:34.105Z,100.00
2023-01-11T23:06:09.997Z,100.00
2023-01-11T23:09:48.549Z,100.00
2023-01-11T23:13:34.031Z,100.00
2023-01-11T23:16:53.701Z,100.00
2023-01-11T23:20:13.083Z,100.00
2023-01-11T23:23:34.816Z,100.00
2023-01-11T23:26:59.658Z,100.00
2023-01-11T23:30:26.634Z,100.00
2023-01-11T23:33:59.834Z,100.00
2023-01-11T23:37:30.159Z,100.00
2023-01-11T23:41:26.644Z,100.00
2023-01-11T23:44:43.379Z,100.00
2023-01-11T23:48:02.709Z,100.00
2023-01-11T23:51:38.270Z,100.00
2023-01-11T23:55:15.100Z,100.00
2023-01-11T23:58:51.068Z,100.00
